CheckWX is a tool to help pilots better visualize weather data.  It is not intended as a substitute for an official pre-flight weather briefing.

12:04:07 UTC

EBDT METAR
Schaffen Airport
Diest, Belgium
Current

39 mins ago

EBDT 161125Z AUTO 19009KT 9999 -DZ FEW010/// BKN013/// OVC016/// 13/12 Q1008 GRN
Observed
Oct-16 @ 11:25 UTC
Wind
  • 190° at 9 KTS
Visibility
10,000+ meters
Flight Rules
MVFR
Conditions
Light Drizzle
Cloud Levels
  • Few at 1,000' AGL
  • Broken at 1,300' AGL
  • Overcast at 1,600' AGL
Temperature
13°C / 55°F
Dewpoint
12°C / 54°F
Humidity
94%
Altimeter
29.76" Hg
Pressure
1007.92 hPa
Previous

49 mins ago

EBDT 161115Z AUTO 18010KT 3600 -RA FEW009/// BKN013/// OVC017/// 13/12 Q1008 YLO
Observed
Oct-16 @ 11:15 UTC
Wind
  • 180° at 10 KTS
Visibility
3,600 meters
Flight Rules
IFR
Conditions
Light Rain
Cloud Levels
  • Few at 900' AGL
  • Broken at 1,300' AGL
  • Overcast at 1,700' AGL
Temperature
13°C / 55°F
Dewpoint
12°C / 54°F
Humidity
94%
Altimeter
29.76" Hg
Pressure
1007.92 hPa
Previous

57 mins ago

EBDT 161107Z 18010KT 4000 BKN008 BKN018 13/12 Q1008 GRN FCST CANCEL
Observed
Oct-16 @ 11:07 UTC
Wind
  • 180° at 10 KTS
Visibility
4,000 meters
Flight Rules
IFR
Cloud Levels
  • Broken at 800' AGL
  • Broken at 1,800' AGL
Temperature
13°C / 55°F
Dewpoint
12°C / 54°F
Humidity
94%
Altimeter
29.76" Hg
Pressure
1007.92 hPa